Terminal Aerodrome Forecast
Issued by NWS Charleston, SC

Home | Current Version | Previous Version | Text Only | Print | Product List | Glossary On
Versions: 1 2 3 4 5 6 7 8 9 10 11 12 13 14 15 16 17 18
000
FTUS42 KCHS 312225 AAC
TAFCHS
TAF AMD
KCHS 312225Z 3122/0118 20010KT P6SM VCTS SCT030CB BKN120
      TEMPO 3122/3124 5SM -SHRA BKN030
     FM010000 20007KT P6SM SCT025 BKN100
     FM010300 24005KT P6SM SCT025 BKN180=

USA.gov is the U.S. government's official web portal to all federal, state and local government web resources and services.